Time,TemperatureF,DewpointF,PressureIn,WindDirection,WindDirectionDegrees,WindSpeedMPH,WindSpeedGustMPH,Humidity,HourlyPrecipIn,Conditions,Clouds,dailyrainin,SolarRadiationWatts/m^2,SoftwareType,DateUTC
2013-06-09 00:02:00,68.0,59.0,-100.00,SSE,162,1.0,5.0,73,0.00,,,0.01,0.000000,,2013-06-09 05:02:00,
2013-06-09 00:32:00,68.0,61.0,-100.00,South,178,4.0,7.0,78,0.00,,,-99.99,0.000000,,2013-06-09 05:32:00,
2013-06-09 00:42:00,68.0,61.0,-100.00,South,178,4.0,7.0,78,0.00,,,-99.99,0.000000,,2013-06-09 05:42:00,
2013-06-09 00:52:00,68.0,61.0,-100.00,South,178,4.0,7.0,78,0.00,,,-99.99,0.000000,,2013-06-09 05:52:00,
2013-06-09 01:02:00,68.0,61.0,-100.00,South,178,4.0,7.0,78,0.00,,,-99.99,0.000000,,2013-06-09 06:02:00,
2013-06-09 01:32:00,68.0,60.0,-100.00,SSE,159,2.0,8.0,75,0.00,,,0.00,0.000000,,2013-06-09 06:32:00,
2013-06-09 01:42:00,68.0,60.0,-100.00,SSE,159,2.0,8.0,75,0.00,,,0.00,0.000000,,2013-06-09 06:42:00,
2013-06-09 01:52:00,68.0,60.0,-100.00,SSE,159,2.0,8.0,75,0.00,,,0.00,0.000000,,2013-06-09 06:52:00,
2013-06-09 02:02:00,68.0,60.0,-100.00,SSE,159,2.0,8.0,75,0.00,,,0.00,0.000000,,2013-06-09 07:02:00,
2013-06-09 02:32:00,67.0,60.0,-100.00,South,179,1.0,7.0,79,0.00,,,0.00,0.000000,,2013-06-09 07:32:00,
2013-06-09 02:42:00,67.0,60.0,-100.00,South,179,1.0,7.0,79,0.00,,,0.00,0.000000,,2013-06-09 07:42:00,
2013-06-09 02:53:00,67.0,60.0,-100.00,South,179,1.0,7.0,79,0.00,,,0.00,0.000000,,2013-06-09 07:53:00,
2013-06-09 03:02:00,67.0,60.0,-100.00,South,179,1.0,7.0,79,0.00,,,0.00,0.000000,,2013-06-09 08:02:00,
2013-06-09 03:32:00,69.0,63.0,-100.00,SSE,157,2.0,6.0,80,0.00,,,0.00,0.000000,,2013-06-09 08:32:00,
2013-06-09 03:42:00,69.0,63.0,-100.00,SSE,157,2.0,6.0,80,0.00,,,0.00,0.000000,,2013-06-09 08:42:00,
2013-06-09 03:53:00,69.0,63.0,-100.00,SSE,157,2.0,6.0,80,0.00,,,0.00,0.000000,,2013-06-09 08:53:00,
2013-06-09 04:02:00,69.0,63.0,-100.00,SSE,157,2.0,6.0,80,0.00,,,0.00,0.000000,,2013-06-09 09:02:00,
2013-06-09 04:33:00,67.0,63.0,-100.00,SE,129,4.0,7.0,86,0.00,,,0.00,0.000000,,2013-06-09 09:33:00,
2013-06-09 04:43:00,67.0,63.0,-100.00,SE,129,4.0,7.0,86,0.00,,,0.00,0.000000,,2013-06-09 09:43:00,
2013-06-09 04:53:00,67.0,63.0,-100.00,SE,129,4.0,7.0,86,0.00,,,0.00,0.000000,,2013-06-09 09:53:00,
2013-06-09 05:03:00,67.0,63.0,-100.00,SE,129,4.0,7.0,86,0.00,,,0.00,0.000000,,2013-06-09 10:03:00,
2013-06-09 05:32:00,66.0,63.0,-100.00,ESE,117,2.0,6.0,89,0.00,,,0.00,0.000000,,2013-06-09 10:32:00,
2013-06-09 05:43:00,66.0,63.0,-100.00,ESE,117,2.0,6.0,89,0.00,,,0.00,0.000000,,2013-06-09 10:43:00,
2013-06-09 05:52:00,66.0,63.0,-100.00,ESE,117,2.0,6.0,89,0.00,,,0.00,0.000000,,2013-06-09 10:52:00,
2013-06-09 06:02:00,66.0,63.0,-100.00,ESE,117,2.0,6.0,89,0.00,,,0.00,0.000000,,2013-06-09 11:02:00,
2013-06-09 06:32:00,67.0,64.0,-100.00,SE,129,4.0,8.0,91,0.00,,,0.00,14.000000,,2013-06-09 11:32:00,
2013-06-09 06:42:00,67.0,64.0,-100.00,SE,129,4.0,8.0,91,0.00,,,0.00,14.000000,,2013-06-09 11:42:00,
2013-06-09 06:53:00,67.0,64.0,-100.00,SE,129,4.0,8.0,91,0.00,,,0.00,14.000000,,2013-06-09 11:53:00,
2013-06-09 07:02:00,67.0,64.0,-100.00,SE,129,4.0,8.0,91,0.00,,,0.00,14.000000,,2013-06-09 12:02:00,
2013-06-09 07:32:00,68.0,65.0,-100.00,SE,139,3.0,8.0,91,0.00,,,0.00,91.000000,,2013-06-09 12:32:00,
2013-06-09 07:42:00,68.0,65.0,-100.00,SE,139,3.0,8.0,91,0.00,,,0.00,91.000000,,2013-06-09 12:42:00,
2013-06-09 07:53:00,68.0,65.0,-100.00,SE,139,3.0,8.0,91,0.00,,,0.00,91.000000,,2013-06-09 12:53:00,
2013-06-09 08:02:00,68.0,65.0,-100.00,SE,139,3.0,8.0,91,0.00,,,0.00,91.000000,,2013-06-09 13:02:00,
2013-06-09 08:32:00,68.0,66.0,-100.00,SE,129,4.0,10.0,94,0.00,,,0.00,162.000000,,2013-06-09 13:32:00,
2013-06-09 08:42:00,68.0,66.0,-100.00,SE,129,4.0,10.0,94,0.00,,,0.00,162.000000,,2013-06-09 13:42:00,
2013-06-09 08:52:00,68.0,66.0,-100.00,SE,129,4.0,10.0,94,0.00,,,0.00,162.000000,,2013-06-09 13:52:00,
2013-06-09 09:02:00,68.0,66.0,-100.00,SE,129,4.0,10.0,94,0.00,,,0.00,162.000000,,2013-06-09 14:02:00,
2013-06-09 09:32:00,70.0,68.0,-100.00,SE,136,1.0,8.0,93,0.00,,,0.00,224.000000,,2013-06-09 14:32:00,
2013-06-09 09:43:00,70.0,68.0,-100.00,SE,136,1.0,8.0,93,0.00,,,0.00,224.000000,,2013-06-09 14:43:00,
2013-06-09 09:52:00,70.0,68.0,-100.00,SE,136,1.0,8.0,93,0.00,,,0.00,224.000000,,2013-06-09 14:52:00,
2013-06-09 10:02:00,70.0,68.0,-100.00,SE,136,1.0,8.0,93,0.00,,,0.00,224.000000,,2013-06-09 15:02:00,
2013-06-09 10:33:00,74.0,68.0,-100.00,SSE,153,4.0,10.0,81,0.00,,,0.00,488.000000,,2013-06-09 15:33:00,
2013-06-09 10:44:00,74.0,68.0,-100.00,SSE,153,4.0,10.0,81,0.00,,,0.00,488.000000,,2013-06-09 15:44:00,
2013-06-09 10:53:00,74.0,68.0,-100.00,SSE,153,4.0,10.0,81,0.00,,,0.00,488.000000,,2013-06-09 15:53:00,
2013-06-09 11:03:00,74.0,68.0,-100.00,SSE,153,4.0,10.0,81,0.00,,,0.00,488.000000,,2013-06-09 16:03:00,
2013-06-09 11:33:00,73.0,69.0,-100.00,SE,132,5.0,10.0,87,0.00,,,0.00,370.000000,,2013-06-09 16:33:00,
2013-06-09 11:43:00,73.0,69.0,-100.00,SE,132,5.0,10.0,87,0.00,,,0.00,370.000000,,2013-06-09 16:43:00,
2013-06-09 11:53:00,73.0,69.0,-100.00,SE,132,5.0,10.0,87,0.00,,,0.00,370.000000,,2013-06-09 16:53:00,
2013-06-09 12:03:00,73.0,69.0,-100.00,SE,132,5.0,10.0,87,0.00,,,0.00,370.000000,,2013-06-09 17:03:00,
2013-06-09 12:32:00,72.0,70.0,-100.00,SSE,160,4.0,13.0,93,0.00,,,0.00,373.000000,,2013-06-09 17:32:00,
2013-06-09 12:42:00,72.0,70.0,-100.00,SSE,160,4.0,13.0,93,0.00,,,0.00,373.000000,,2013-06-09 17:42:00,
2013-06-09 12:52:00,72.0,70.0,-100.00,SSE,160,4.0,13.0,93,0.00,,,0.00,373.000000,,2013-06-09 17:52:00,
2013-06-09 13:02:00,72.0,70.0,-100.00,SSE,160,4.0,13.0,93,0.00,,,0.00,373.000000,,2013-06-09 18:02:00,
2013-06-09 13:33:00,76.0,70.0,-100.00,SW,214,4.0,12.0,82,0.00,,,0.00,374.000000,,2013-06-09 18:33:00,
2013-06-09 13:42:00,76.0,70.0,-100.00,SW,214,4.0,12.0,82,0.00,,,0.00,374.000000,,2013-06-09 18:42:00,
2013-06-09 13:52:00,76.0,70.0,-100.00,SW,214,4.0,12.0,82,0.00,,,0.00,374.000000,,2013-06-09 18:52:00,
2013-06-09 14:02:00,76.0,70.0,-100.00,SW,214,4.0,12.0,82,0.00,,,0.00,374.000000,,2013-06-09 19:02:00,
2013-06-09 14:32:00,67.0,67.0,-100.00,ESE,105,8.0,13.0,99,0.00,,,0.00,143.000000,,2013-06-09 19:32:00,
2013-06-09 14:43:00,67.0,67.0,-100.00,ESE,105,8.0,13.0,99,0.00,,,0.00,143.000000,,2013-06-09 19:43:00,
2013-06-09 14:52:00,67.0,67.0,-100.00,ESE,105,8.0,13.0,99,0.00,,,0.00,143.000000,,2013-06-09 19:52:00,
2013-06-09 15:03:00,67.0,67.0,-100.00,ESE,105,8.0,13.0,99,0.00,,,0.00,143.000000,,2013-06-09 20:03:00,
2013-06-09 15:32:00,67.0,67.0,-100.00,SE,141,3.0,13.0,100,0.80,,,0.80,26.000000,,2013-06-09 20:32:00,
2013-06-09 15:42:00,67.0,67.0,-100.00,SE,141,3.0,13.0,100,0.80,,,0.80,26.000000,,2013-06-09 20:42:00,
2013-06-09 15:52:00,67.0,67.0,-100.00,SE,141,3.0,13.0,100,0.80,,,0.80,26.000000,,2013-06-09 20:52:00,
2013-06-09 16:03:00,67.0,67.0,-100.00,SE,141,3.0,13.0,100,0.80,,,0.80,26.000000,,2013-06-09 21:03:00,
2013-06-09 16:33:00,68.0,68.0,-100.00,SE,132,7.0,12.0,100,0.24,,,1.04,163.000000,,2013-06-09 21:33:00,
2013-06-09 16:44:00,68.0,68.0,-100.00,SE,132,7.0,12.0,100,0.24,,,1.04,163.000000,,2013-06-09 21:44:00,
2013-06-09 16:53:00,68.0,68.0,-100.00,SE,132,7.0,12.0,100,0.24,,,1.04,163.000000,,2013-06-09 21:53:00,
2013-06-09 17:02:00,68.0,68.0,-100.00,SE,132,7.0,12.0,100,0.24,,,1.04,163.000000,,2013-06-09 22:02:00,
2013-06-09 17:33:00,68.0,68.0,-100.00,ESE,114,6.0,12.0,100,0.00,,,1.04,298.000000,,2013-06-09 22:33:00,
2013-06-09 17:42:00,68.0,68.0,-100.00,ESE,114,6.0,12.0,100,0.00,,,1.04,298.000000,,2013-06-09 22:42:00,
2013-06-09 17:52:00,68.0,68.0,-100.00,ESE,114,6.0,12.0,100,0.00,,,1.04,298.000000,,2013-06-09 22:52:00,
2013-06-09 18:02:00,68.0,68.0,-100.00,ESE,114,6.0,12.0,100,0.00,,,1.04,298.000000,,2013-06-09 23:02:00,
2013-06-09 18:32:00,68.0,68.0,-100.00,SE,125,4.0,11.0,100,0.00,,,1.04,91.000000,,2013-06-09 23:32:00,
2013-06-09 18:43:00,68.0,68.0,-100.00,SE,125,4.0,11.0,100,0.00,,,1.04,91.000000,,2013-06-09 23:43:00,
2013-06-09 18:52:00,68.0,68.0,-100.00,SE,125,4.0,11.0,100,0.00,,,1.04,91.000000,,2013-06-09 23:52:00,
2013-06-09 19:02:00,68.0,68.0,-100.00,SE,125,4.0,11.0,100,0.00,,,1.04,91.000000,,2013-06-10 00:02:00,
2013-06-09 19:32:00,68.0,68.0,-100.00,SE,128,6.0,10.0,100,0.00,,,1.04,31.000000,,2013-06-10 00:32:00,
2013-06-09 19:42:00,68.0,68.0,-100.00,SE,128,6.0,10.0,100,0.00,,,1.04,31.000000,,2013-06-10 00:42:00,
2013-06-09 19:52:00,68.0,68.0,-100.00,SE,128,6.0,10.0,100,0.00,,,1.04,31.000000,,2013-06-10 00:52:00,
2013-06-09 20:03:00,68.0,68.0,-100.00,SE,128,6.0,10.0,100,0.00,,,1.04,31.000000,,2013-06-10 01:03:00,
2013-06-09 20:32:00,69.0,69.0,-100.00,South,174,5.0,13.0,100,0.03,,,1.07,5.000000,,2013-06-10 01:32:00,
2013-06-09 20:43:00,69.0,69.0,-100.00,South,174,5.0,13.0,100,0.03,,,1.07,5.000000,,2013-06-10 01:43:00,
2013-06-09 20:52:00,69.0,69.0,-100.00,South,174,5.0,13.0,100,0.03,,,1.07,5.000000,,2013-06-10 01:52:00,
2013-06-09 21:02:00,69.0,69.0,-100.00,South,174,5.0,13.0,100,0.03,,,1.07,5.000000,,2013-06-10 02:02:00,
2013-06-09 21:32:00,69.0,69.0,-100.00,SSE,158,3.0,8.0,100,0.04,,,1.11,0.000000,,2013-06-10 02:32:00,
2013-06-09 21:42:00,69.0,69.0,-100.00,SSE,158,3.0,8.0,100,0.04,,,1.11,0.000000,,2013-06-10 02:42:00,
2013-06-09 21:52:00,69.0,69.0,-100.00,SSE,158,3.0,8.0,100,0.04,,,1.11,0.000000,,2013-06-10 02:52:00,
2013-06-09 22:02:00,69.0,69.0,-100.00,SSE,158,3.0,8.0,100,0.04,,,1.11,0.000000,,2013-06-10 03:02:00,
2013-06-09 22:33:00,68.0,68.0,-100.00,South,189,5.0,11.0,100,0.00,,,1.11,0.000000,,2013-06-10 03:33:00,
2013-06-09 22:43:00,68.0,68.0,-100.00,South,189,5.0,11.0,100,0.00,,,1.11,0.000000,,2013-06-10 03:43:00,
2013-06-09 22:53:00,68.0,68.0,-100.00,South,189,5.0,11.0,100,0.00,,,1.11,0.000000,,2013-06-10 03:53:00,
2013-06-09 23:03:00,68.0,68.0,-100.00,South,189,5.0,11.0,100,0.00,,,1.11,0.000000,,2013-06-10 04:03:00,
2013-06-09 23:33:00,67.0,67.0,-100.00,South,175,2.0,9.0,100,0.00,,,1.11,0.000000,,2013-06-10 04:33:00,
2013-06-09 23:42:00,67.0,67.0,-100.00,South,175,2.0,9.0,100,0.00,,,1.11,0.000000,,2013-06-10 04:42:00,
2013-06-09 23:53:00,67.0,67.0,-100.00,South,175,2.0,9.0,100,0.00,,,1.11,0.000000,,2013-06-10 04:53:00,